Rechercher aéroport 
image banner adimage banner adimage banner ad
image banner ad

PS05 - G&N

Situé à Albion, United States

ICAO - PS05, IATA -

Données fournies par Airmate  

Information générale

Coordonnées: N41°52'31" W80°22'29"
Élévation : 985 feet MSL.
Variation magnétique : -08° East
Voir autres Aéroports à Pennsylvania

Données opérationnelles

Special qualification required
Heure actuelle UTC:
Heure actuelle locale:
Météo à : KERI - Erie Intl/Tom Ridge Field ( 28 km )
METAR: KERI 152151Z 30014G21KT 10SM CLR 21/08 A2994 RMK AO2 SLP134 T02110078
TAF: KERI 151733Z 1518/1618 28010G17KT P6SM BKN060 FM152000 30013G20KT P6SM SKC FM160000 34013G21KT P6SM SKC FM160500 01011G19KT P6SM FEW250 FM161600 34010KT P6SM FEW050
Voir NOTAMs / SUP AIP / TFR affectant cet aéroport [VIEW]
Fréquences de communication: [VIEW]

Pistes:

Identifiant RWYQFULongueur (ft)Largeur (ft)SurfaceLDA (ft)
092700100GRASS
272700100GRASS

Coordonnées de l'aéroport

Adresse: Albion United States

Vue satellite de PS05